createdAt,value
2023-11-17T00:02:22.197Z,7.90
2023-11-17T00:04:49.282Z,6.10
2023-11-17T00:07:16.173Z,8.57
2023-11-17T00:09:42.998Z,7.07
2023-11-17T00:12:10.333Z,8.77
2023-11-17T00:14:37.784Z,8.73
2023-11-17T00:17:05.084Z,6.50
2023-11-17T00:19:32.144Z,8.20
2023-11-17T00:21:58.925Z,6.90
2023-11-17T00:24:25.929Z,6.67
2023-11-17T00:26:52.681Z,8.13
2023-11-17T00:29:20.506Z,8.37
2023-11-17T00:31:47.291Z,11.30
2023-11-17T00:34:14.080Z,11.33
2023-11-17T00:36:44.997Z,8.20
2023-11-17T00:39:12.401Z,10.63
2023-11-17T00:41:39.270Z,8.47
2023-11-17T00:44:06.445Z,11.60
2023-11-17T00:46:34.066Z,7.93
2023-11-17T00:49:04.920Z,6.43
2023-11-17T00:51:32.195Z,10.63
2023-11-17T00:54:01.887Z,9.20
2023-11-17T00:56:28.728Z,10.87
2023-11-17T00:58:55.623Z,8.60
2023-11-17T01:01:22.490Z,8.93
2023-11-17T01:03:49.412Z,10.00
2023-11-17T01:06:16.493Z,7.40
2023-11-17T01:08:43.269Z,7.37
2023-11-17T01:11:13.450Z,6.57
2023-11-17T01:13:41.133Z,8.17
2023-11-17T01:16:08.121Z,9.60
2023-11-17T01:18:35.257Z,10.33
2023-11-17T01:21:02.124Z,7.90
2023-11-17T01:23:29.806Z,9.13
2023-11-17T01:25:57.156Z,9.17
2023-11-17T01:28:24.822Z,8.20
2023-11-17T01:30:51.740Z,8.67
2023-11-17T01:33:18.710Z,12.03
2023-11-17T01:35:45.755Z,11.93
2023-11-17T01:38:15.371Z,12.43
2023-11-17T01:40:42.352Z,9.43
2023-11-17T01:43:13.077Z,12.20
2023-11-17T01:45:44.215Z,12.03
2023-11-17T01:48:11.570Z,11.57
2023-11-17T01:50:38.581Z,13.03
2023-11-17T01:53:08.641Z,10.33
2023-11-17T01:55:36.025Z,12.53
2023-11-17T01:58:03.261Z,8.67
2023-11-17T02:00:30.074Z,10.27
2023-11-17T02:02:57.117Z,10.03
2023-11-17T02:05:25.970Z,11.53
2023-11-17T02:08:05.847Z,11.23
2023-11-17T02:10:39.785Z,8.30
2023-11-17T02:13:41.328Z,9.93
2023-11-17T02:16:13.041Z,8.83
2023-11-17T02:18:41.883Z,8.17
2023-11-17T02:21:08.896Z,8.40
2023-11-17T02:23:38.340Z,8.27
2023-11-17T02:26:18.885Z,8.30
2023-11-17T02:29:01.214Z,8.47
2023-11-17T02:31:30.935Z,8.03
2023-11-17T02:34:05.109Z,6.77
2023-11-17T02:36:34.335Z,7.43
2023-11-17T02:39:26.979Z,7.27
2023-11-17T02:42:01.350Z,7.93
2023-11-17T02:44:35.220Z,7.53
2023-11-17T02:47:07.148Z,6.70
2023-11-17T02:49:56.988Z,7.93
2023-11-17T02:52:27.822Z,8.03
2023-11-17T02:54:55.799Z,9.00
2023-11-17T02:57:26.547Z,8.07
2023-11-17T02:59:54.914Z,9.03
2023-11-17T03:02:21.736Z,7.63
2023-11-17T03:04:54.081Z,7.93
2023-11-17T03:07:21.726Z,11.10
2023-11-17T03:09:53.577Z,7.37
2023-11-17T03:12:21.204Z,7.23
2023-11-17T03:14:48.014Z,8.27
2023-11-17T03:17:14.836Z,7.47
2023-11-17T03:19:44.440Z,13.03
2023-11-17T03:22:15.299Z,7.87
2023-11-17T03:24:42.975Z,9.27
2023-11-17T03:27:09.821Z,9.13
2023-11-17T03:29:36.608Z,11.00
2023-11-17T03:32:03.484Z,7.40
2023-11-17T03:34:31.852Z,8.10
2023-11-17T03:37:01.759Z,9.07
2023-11-17T03:39:30.150Z,7.73
2023-11-17T03:41:57.684Z,9.37
2023-11-17T03:44:29.580Z,9.97
2023-11-17T03:46:57.161Z,9.93
2023-11-17T03:49:24.216Z,8.13
2023-11-17T03:51:52.314Z,7.73
2023-11-17T03:54:23.030Z,7.77
2023-11-17T03:56:50.581Z,8.80
2023-11-17T03:59:18.194Z,11.37
2023-11-17T04:01:45.343Z,9.50
2023-11-17T04:04:12.823Z,8.13
2023-11-17T04:06:39.590Z,9.07
2023-11-17T04:09:06.800Z,8.37
2023-11-17T04:11:33.705Z,9.30
2023-11-17T04:14:00.583Z,9.37
2023-11-17T04:16:27.646Z,9.27
2023-11-17T04:18:56.097Z,8.23
2023-11-17T04:21:24.232Z,7.17
2023-11-17T04:23:51.017Z,9.33
2023-11-17T04:26:17.805Z,10.60
2023-11-17T04:28:45.456Z,8.83
2023-11-17T04:31:12.243Z,8.53
2023-11-17T04:33:39.121Z,6.83
2023-11-17T04:36:06.196Z,8.00
2023-11-17T04:38:33.197Z,9.60
2023-11-17T04:41:00.045Z,9.60
2023-11-17T04:43:27.221Z,10.03
2023-11-17T04:45:55.622Z,8.77
2023-11-17T04:48:22.528Z,14.17
2023-11-17T04:50:49.446Z,16.30
2023-11-17T04:53:16.306Z,13.83
2023-11-17T04:55:47.129Z,14.73
2023-11-17T04:58:13.941Z,15.23
2023-11-17T05:00:43.008Z,12.20
2023-11-17T05:03:09.879Z,15.27
2023-11-17T05:05:36.696Z,15.40
2023-11-17T05:08:03.527Z,16.50
2023-11-17T05:10:30.722Z,13.60
2023-11-17T05:12:57.565Z,14.37
2023-11-17T05:15:25.765Z,11.47
2023-11-17T05:17:52.609Z,13.90
2023-11-17T05:20:24.324Z,11.23
2023-11-17T05:22:53.743Z,9.60
2023-11-17T05:25:20.793Z,10.17
2023-11-17T05:27:48.311Z,12.77
2023-11-17T05:30:19.768Z,12.43
2023-11-17T05:32:47.616Z,9.67
2023-11-17T05:35:14.647Z,10.40
2023-11-17T05:37:41.498Z,11.87
2023-11-17T05:40:09.076Z,9.57
2023-11-17T05:42:36.190Z,11.40
2023-11-17T05:45:03.397Z,11.23
2023-11-17T05:47:30.194Z,12.57
2023-11-17T05:49:57.167Z,9.63
2023-11-17T05:52:24.553Z,11.80
2023-11-17T05:54:52.770Z,13.90
2023-11-17T05:57:23.475Z,14.23
2023-11-17T05:59:54.619Z,10.87
2023-11-17T06:02:22.596Z,12.20
2023-11-17T06:04:50.330Z,12.30
2023-11-17T06:07:17.311Z,11.17
2023-11-17T06:09:44.980Z,11.53
2023-11-17T06:12:11.787Z,12.13
2023-11-17T06:14:38.687Z,11.97
2023-11-17T06:17:05.898Z,11.90
2023-11-17T06:19:34.537Z,11.60
2023-11-17T06:22:01.434Z,9.40
2023-11-17T06:24:28.316Z,10.20
2023-11-17T06:26:56.001Z,10.57
2023-11-17T06:29:26.198Z,11.93
2023-11-17T06:31:55.835Z,13.53
2023-11-17T06:34:23.270Z,13.33
2023-11-17T06:36:53.366Z,10.13
2023-11-17T06:39:23.115Z,12.70
2023-11-17T06:41:51.552Z,9.77
2023-11-17T06:44:20.012Z,10.40
2023-11-17T06:46:49.819Z,11.50
2023-11-17T06:49:21.136Z,9.77
2023-11-17T06:51:58.496Z,11.10
2023-11-17T06:54:26.284Z,12.87
2023-11-17T06:56:53.307Z,11.93
2023-11-17T06:59:23.574Z,11.93
2023-11-17T07:01:52.951Z,9.90
2023-11-17T07:04:20.729Z,11.73
2023-11-17T07:06:49.396Z,12.67
2023-11-17T07:09:21.390Z,11.47
2023-11-17T07:11:51.364Z,14.63
2023-11-17T07:14:21.372Z,16.57
2023-11-17T07:16:51.935Z,14.30
2023-11-17T07:19:20.037Z,13.53
2023-11-17T07:21:48.428Z,12.97
2023-11-17T07:24:19.847Z,15.07
2023-11-17T07:26:47.872Z,13.37
2023-11-17T07:29:15.642Z,13.23
2023-11-17T07:31:47.071Z,13.27
2023-11-17T07:34:18.647Z,13.57
2023-11-17T07:36:49.469Z,16.17
2023-11-17T07:39:25.025Z,17.57
2023-11-17T07:41:51.995Z,14.73
2023-11-17T07:44:18.824Z,13.47
2023-11-17T07:46:48.999Z,19.10
2023-11-17T07:49:19.609Z,13.70
2023-11-17T07:51:49.362Z,15.93
2023-11-17T07:54:18.564Z,18.10
2023-11-17T07:56:48.471Z,15.57
2023-11-17T07:59:16.028Z,18.07
2023-11-17T08:01:42.792Z,16.60
2023-11-17T08:04:10.231Z,17.53
2023-11-17T08:06:38.163Z,17.33
2023-11-17T08:09:10.971Z,14.90
2023-11-17T08:11:45.948Z,15.37
2023-11-17T08:14:13.005Z,18.10
2023-11-17T08:16:39.849Z,20.17
2023-11-17T08:19:18.495Z,18.43
2023-11-17T08:21:53.053Z,17.87
2023-11-17T08:24:22.291Z,17.23
2023-11-17T08:26:51.949Z,19.67
2023-11-17T08:29:22.691Z,21.07
2023-11-17T08:31:50.887Z,18.23
2023-11-17T08:34:18.094Z,19.70
2023-11-17T08:36:45.024Z,17.50
2023-11-17T08:39:22.938Z,22.40
2023-11-17T08:41:49.830Z,22.63
2023-11-17T08:44:17.199Z,18.33
2023-11-17T08:46:48.549Z,23.50
2023-11-17T08:49:15.544Z,21.50
2023-11-17T08:51:43.170Z,21.50
2023-11-17T08:54:10.376Z,21.23
2023-11-17T08:56:37.788Z,20.60
2023-11-17T08:59:04.706Z,25.43
2023-11-17T09:01:31.618Z,21.43
2023-11-17T09:04:01.852Z,21.90
2023-11-17T09:06:28.929Z,20.90
2023-11-17T09:09:24.033Z,22.90
2023-11-17T09:12:04.937Z,24.00
2023-11-17T09:14:46.509Z,22.77
2023-11-17T09:17:13.750Z,28.40
2023-11-17T09:19:43.290Z,25.67
2023-11-17T09:22:10.450Z,24.13
2023-11-17T09:24:37.271Z,23.20
2023-11-17T09:27:05.411Z,27.73
2023-11-17T09:29:35.121Z,25.07
2023-11-17T09:32:02.766Z,24.23
2023-11-17T09:34:29.999Z,22.57
2023-11-17T09:36:56.818Z,22.23
2023-11-17T09:39:23.682Z,22.10
2023-11-17T09:41:52.325Z,22.50
2023-11-17T09:44:19.968Z,23.53
2023-11-17T09:46:54.208Z,25.60
2023-11-17T09:49:24.053Z,21.10
2023-11-17T09:51:52.912Z,24.23
2023-11-17T09:54:25.678Z,21.73
2023-11-17T09:56:55.008Z,26.53
2023-11-17T09:59:23.807Z,23.13
2023-11-17T10:01:50.842Z,24.97
2023-11-17T10:04:18.480Z,25.83
2023-11-17T10:06:45.726Z,20.63
2023-11-17T10:09:14.951Z,26.53
2023-11-17T10:11:43.261Z,24.93
2023-11-17T10:14:12.434Z,23.77
2023-11-17T10:16:39.534Z,22.90
2023-11-17T10:19:07.176Z,23.90
2023-11-17T10:21:35.441Z,24.90
2023-11-17T10:24:02.294Z,23.73
2023-11-17T10:26:34.444Z,23.23
2023-11-17T10:29:02.356Z,22.53
2023-11-17T10:31:29.491Z,23.23
2023-11-17T10:33:57.336Z,25.30
2023-11-17T10:36:25.632Z,24.03
2023-11-17T10:39:05.184Z,23.93
2023-11-17T10:41:32.441Z,22.23
2023-11-17T10:44:00.432Z,26.50
2023-11-17T10:46:32.535Z,26.53
2023-11-17T10:49:06.528Z,25.53
2023-11-17T10:51:54.849Z,23.20
2023-11-17T10:54:21.623Z,31.50
2023-11-17T10:56:49.625Z,24.93
2023-11-17T10:59:22.872Z,26.77
2023-11-17T11:01:53.205Z,24.07
2023-11-17T11:04:27.309Z,29.83
2023-11-17T11:06:59.055Z,28.20
2023-11-17T11:09:34.326Z,28.37
2023-11-17T11:12:01.380Z,28.33
2023-11-17T11:14:55.541Z,27.97
2023-11-17T11:17:22.924Z,23.33
2023-11-17T11:19:58.656Z,25.90
2023-11-17T11:22:37.836Z,24.87
2023-11-17T11:25:07.237Z,23.30
2023-11-17T11:27:34.974Z,29.13
2023-11-17T11:30:01.894Z,23.37
2023-11-17T11:32:29.599Z,27.97
2023-11-17T11:34:58.786Z,27.20
2023-11-17T11:37:30.217Z,25.90
2023-11-17T11:39:57.029Z,29.77
2023-11-17T11:42:24.417Z,26.03
2023-11-17T11:44:52.736Z,26.47
2023-11-17T11:47:20.311Z,29.43
2023-11-17T11:49:47.723Z,28.23
2023-11-17T11:52:23.754Z,30.27
2023-11-17T11:54:50.676Z,29.50
2023-11-17T11:57:29.712Z,28.83
2023-11-17T12:00:16.450Z,29.07
2023-11-17T12:03:00.087Z,30.43
2023-11-17T12:05:31.897Z,28.30
2023-11-17T12:08:23.867Z,29.37
2023-11-17T12:10:54.708Z,30.73
2023-11-17T12:13:58.113Z,28.37
2023-11-17T12:16:30.520Z,29.23
2023-11-17T12:19:01.567Z,27.20
2023-11-17T12:21:28.459Z,27.73
2023-11-17T12:23:57.056Z,26.80
2023-11-17T12:26:28.571Z,30.30
2023-11-17T12:28:56.703Z,32.47
2023-11-17T12:31:24.468Z,30.00
2023-11-17T12:33:52.489Z,32.27
2023-11-17T12:36:20.776Z,32.73
2023-11-17T12:38:56.476Z,36.47
2023-11-17T12:41:29.730Z,37.30
2023-11-17T12:43:58.726Z,34.30
2023-11-17T12:46:29.087Z,39.53
2023-11-17T12:48:56.216Z,39.40
2023-11-17T12:51:33.083Z,40.33
2023-11-17T12:54:02.501Z,38.80
2023-11-17T12:56:29.937Z,34.60
2023-11-17T12:58:56.770Z,34.57
2023-11-17T13:01:26.197Z,34.37
2023-11-17T13:04:04.067Z,42.93
2023-11-17T13:06:32.516Z,45.10
2023-11-17T13:08:59.790Z,42.83
2023-11-17T13:11:35.554Z,45.30
2023-11-17T13:14:02.655Z,45.20
2023-11-17T13:16:31.011Z,44.70
2023-11-17T13:18:58.102Z,48.20
2023-11-17T13:21:26.482Z,47.60
2023-11-17T13:23:53.594Z,40.87
2023-11-17T13:26:22.424Z,43.07
2023-11-17T13:28:50.172Z,38.57
2023-11-17T13:31:21.191Z,37.13
2023-11-17T13:33:55.607Z,38.10
2023-11-17T13:36:32.504Z,33.00
2023-11-17T13:39:20.307Z,34.93
2023-11-17T13:41:49.200Z,35.87
2023-11-17T13:44:36.253Z,36.33
2023-11-17T13:47:06.909Z,34.47
2023-11-17T13:49:36.289Z,36.57
2023-11-17T13:52:04.412Z,35.83
2023-11-17T13:54:32.113Z,40.03
2023-11-17T13:56:59.151Z,39.20
2023-11-17T13:59:27.546Z,33.40
2023-11-17T14:01:58.954Z,38.33
2023-11-17T14:04:34.152Z,41.87
2023-11-17T14:07:03.019Z,36.80
2023-11-17T14:09:32.557Z,33.30
2023-11-17T14:12:01.107Z,39.33
2023-11-17T14:14:31.582Z,34.53
2023-11-17T14:16:59.243Z,37.57
2023-11-17T14:19:28.967Z,39.27
2023-11-17T14:21:56.347Z,38.77
2023-11-17T14:24:23.176Z,35.07
2023-11-17T14:26:56.585Z,31.17
2023-11-17T14:29:29.484Z,34.80
2023-11-17T14:31:56.410Z,35.30
2023-11-17T14:34:23.201Z,34.37
2023-11-17T14:36:54.414Z,31.30
2023-11-17T14:39:30.562Z,33.43
2023-11-17T14:41:58.337Z,32.27
2023-11-17T14:44:27.931Z,31.60
2023-11-17T14:46:58.313Z,33.80
2023-11-17T14:49:28.774Z,33.63
2023-11-17T14:52:05.289Z,35.70
2023-11-17T14:54:32.214Z,29.07
2023-11-17T14:57:02.324Z,34.43
2023-11-17T14:59:29.211Z,33.93
2023-11-17T15:01:58.158Z,36.73
2023-11-17T15:04:29.943Z,32.20
2023-11-17T15:07:01.008Z,33.33
2023-11-17T15:09:28.195Z,34.50
2023-11-17T15:11:55.347Z,32.87
2023-11-17T15:14:28.501Z,35.40
2023-11-17T15:16:55.832Z,31.03
2023-11-17T15:19:23.655Z,30.30
2023-11-17T15:21:50.816Z,29.97
2023-11-17T15:24:24.210Z,32.97
2023-11-17T15:26:58.669Z,29.80
2023-11-17T15:29:31.691Z,29.33
2023-11-17T15:32:05.404Z,30.20
2023-11-17T15:34:32.381Z,29.93
2023-11-17T15:37:00.323Z,26.97
2023-11-17T15:39:32.297Z,30.43
2023-11-17T15:41:59.196Z,29.07
2023-11-17T15:44:26.242Z,31.43
2023-11-17T15:46:54.596Z,33.53
2023-11-17T15:49:22.955Z,30.43
2023-11-17T15:51:51.739Z,31.03
2023-11-17T15:54:18.701Z,28.10
2023-11-17T15:56:47.904Z,30.30
2023-11-17T15:59:15.250Z,28.37
2023-11-17T16:01:44.454Z,29.53
2023-11-17T16:04:11.634Z,30.57
2023-11-17T16:06:41.471Z,30.27
2023-11-17T16:09:11.902Z,31.50
2023-11-17T16:11:41.582Z,29.10
2023-11-17T16:14:13.800Z,30.40
2023-11-17T16:16:41.272Z,29.33
2023-11-17T16:19:08.058Z,28.43
2023-11-17T16:21:36.665Z,27.13
2023-11-17T16:24:06.465Z,29.60
2023-11-17T16:26:34.731Z,29.53
2023-11-17T16:29:02.278Z,34.07
2023-11-17T16:31:29.525Z,33.47
2023-11-17T16:33:56.537Z,30.83
2023-11-17T16:36:25.786Z,29.57
2023-11-17T16:38:52.989Z,27.93
2023-11-17T16:41:21.968Z,31.43
2023-11-17T16:43:51.965Z,29.60
2023-11-17T16:46:22.102Z,29.97
2023-11-17T16:48:51.828Z,28.00
2023-11-17T16:51:19.228Z,31.57
2023-11-17T16:53:47.645Z,30.10
2023-11-17T16:56:16.021Z,28.37
2023-11-17T16:58:43.419Z,33.73
2023-11-17T17:01:10.969Z,28.07
2023-11-17T17:03:38.522Z,27.50
2023-11-17T17:06:05.991Z,29.10
2023-11-17T17:08:36.504Z,33.13
2023-11-17T17:11:06.377Z,27.90
2023-11-17T17:13:35.448Z,28.93
2023-11-17T17:16:02.772Z,29.20
2023-11-17T17:18:31.134Z,32.97
2023-11-17T17:20:58.558Z,30.23
2023-11-17T17:23:25.703Z,33.30
2023-11-17T17:25:56.275Z,35.40
2023-11-17T17:28:23.491Z,29.07
2023-11-17T17:30:50.423Z,32.03
2023-11-17T17:33:17.287Z,33.83
2023-11-17T17:35:45.247Z,32.30
2023-11-17T17:38:13.658Z,36.10
2023-11-17T17:40:41.551Z,33.73
2023-11-17T17:43:11.202Z,33.30
2023-11-17T17:45:38.825Z,32.00
2023-11-17T17:48:09.484Z,30.23
2023-11-17T17:50:37.708Z,31.07
2023-11-17T17:53:04.782Z,31.20
2023-11-17T17:55:31.740Z,38.83
2023-11-17T17:57:58.775Z,35.43
2023-11-17T18:00:27.971Z,33.87
2023-11-17T18:03:02.110Z,33.87
2023-11-17T18:05:29.968Z,33.37
2023-11-17T18:07:56.982Z,32.50
2023-11-17T18:10:26.970Z,33.87
2023-11-17T18:12:54.092Z,30.13
2023-11-17T18:15:23.242Z,34.47
2023-11-17T18:17:53.193Z,30.27
2023-11-17T18:20:22.580Z,31.47
2023-11-17T18:22:50.885Z,33.30
2023-11-17T18:25:19.097Z,30.93
2023-11-17T18:27:50.213Z,32.13
2023-11-17T18:30:19.253Z,34.67
2023-11-17T18:32:46.734Z,33.53
2023-11-17T18:35:24.914Z,33.07
2023-11-17T18:37:52.722Z,31.10
2023-11-17T18:40:23.890Z,30.07
2023-11-17T18:42:54.050Z,32.83
2023-11-17T18:45:22.400Z,29.63
2023-11-17T18:47:53.346Z,32.17
2023-11-17T18:50:22.328Z,32.50
2023-11-17T18:52:50.158Z,30.60
2023-11-17T18:55:18.526Z,30.07
2023-11-17T18:57:45.834Z,32.27
2023-11-17T19:00:19.358Z,29.43
2023-11-17T19:02:50.643Z,34.27
2023-11-17T19:05:20.213Z,31.90
2023-11-17T19:07:49.519Z,29.77
2023-11-17T19:10:21.523Z,32.50
2023-11-17T19:12:52.923Z,30.63
2023-11-17T19:15:22.774Z,25.97
2023-11-17T19:17:50.022Z,30.07
2023-11-17T19:20:17.341Z,28.23
2023-11-17T19:22:45.667Z,30.63
2023-11-17T19:25:12.605Z,31.40
2023-11-17T19:27:41.286Z,33.40
2023-11-17T19:30:16.483Z,35.93
2023-11-17T19:32:49.230Z,34.47
2023-11-17T19:35:20.526Z,36.90
2023-11-17T19:37:48.179Z,40.80
2023-11-17T19:40:16.415Z,32.77
2023-11-17T19:42:45.381Z,30.33
2023-11-17T19:45:14.496Z,49.47
2023-11-17T19:47:42.046Z,51.60
2023-11-17T19:50:14.463Z,39.53
2023-11-17T19:52:44.815Z,35.97
2023-11-17T19:55:14.954Z,32.43
2023-11-17T19:57:41.856Z,32.77
2023-11-17T20:00:13.584Z,30.23
2023-11-17T20:02:43.055Z,29.07
2023-11-17T20:05:11.501Z,33.63
2023-11-17T20:07:41.926Z,31.70
2023-11-17T20:10:15.854Z,33.27
2023-11-17T20:12:42.685Z,32.73
2023-11-17T20:15:16.237Z,35.87
2023-11-17T20:17:55.012Z,31.80
2023-11-17T20:20:28.273Z,28.90
2023-11-17T20:22:57.106Z,30.80
2023-11-17T20:25:25.388Z,32.67
2023-11-17T20:27:53.949Z,28.00
2023-11-17T20:30:22.089Z,35.70
2023-11-17T20:32:51.118Z,33.43
2023-11-17T20:35:18.255Z,37.53
2023-11-17T20:37:45.238Z,34.97
2023-11-17T20:40:15.369Z,40.00
2023-11-17T20:42:44.352Z,32.97
2023-11-17T20:45:16.255Z,33.30
2023-11-17T20:47:48.565Z,33.20
2023-11-17T20:50:21.769Z,32.63
2023-11-17T20:52:53.759Z,32.10
2023-11-17T20:55:22.024Z,31.20
2023-11-17T20:57:51.120Z,29.70
2023-11-17T21:00:25.077Z,32.13
2023-11-17T21:02:53.994Z,32.00
2023-11-17T21:05:22.083Z,31.13
2023-11-17T21:07:49.788Z,30.93
2023-11-17T21:10:20.090Z,33.83
2023-11-17T21:12:50.434Z,29.77
2023-11-17T21:15:19.486Z,34.93
2023-11-17T21:17:47.823Z,32.90
2023-11-17T21:20:15.842Z,30.83
2023-11-17T21:22:43.063Z,32.43
2023-11-17T21:25:12.456Z,30.47
2023-11-17T21:27:43.082Z,33.20
2023-11-17T21:30:17.027Z,30.70
2023-11-17T21:32:50.910Z,31.67
2023-11-17T21:35:19.844Z,30.70
2023-11-17T21:37:53.412Z,29.53
2023-11-17T21:40:21.706Z,31.90
2023-11-17T21:42:49.697Z,29.20
2023-11-17T21:45:19.096Z,31.97
2023-11-17T21:47:46.555Z,26.57
2023-11-17T21:50:14.170Z,31.50
2023-11-17T21:52:41.162Z,32.13
2023-11-17T21:55:11.057Z,32.17
2023-11-17T21:57:42.061Z,30.97
2023-11-17T22:00:12.574Z,32.97
2023-11-17T22:02:46.708Z,25.77
2023-11-17T22:05:23.732Z,26.97
2023-11-17T22:07:51.158Z,29.23
2023-11-17T22:10:18.236Z,27.60
2023-11-17T22:12:51.371Z,29.00
2023-11-17T22:15:20.197Z,28.53
2023-11-17T22:17:48.532Z,29.13
2023-11-17T22:20:16.968Z,30.70
2023-11-17T22:22:44.791Z,30.60
2023-11-17T22:25:13.540Z,30.57
2023-11-17T22:27:41.599Z,29.87
2023-11-17T22:30:14.054Z,29.40
2023-11-17T22:32:45.632Z,30.70
2023-11-17T22:35:15.850Z,30.37
2023-11-17T22:37:43.920Z,28.57
2023-11-17T22:40:17.777Z,24.73
2023-11-17T22:42:46.083Z,29.67
2023-11-17T22:45:16.678Z,31.13
2023-11-17T22:47:46.071Z,27.47
2023-11-17T22:50:19.448Z,27.73
2023-11-17T22:52:46.992Z,28.33
2023-11-17T22:55:13.914Z,26.30
2023-11-17T22:57:41.298Z,25.50
2023-11-17T23:00:34.485Z,28.83
2023-11-17T23:03:04.777Z,25.07
2023-11-17T23:05:34.616Z,28.90
2023-11-17T23:08:02.741Z,25.27
2023-11-17T23:10:31.845Z,29.57
2023-11-17T23:12:59.358Z,24.80
2023-11-17T23:15:27.112Z,24.50
2023-11-17T23:17:55.617Z,27.53
2023-11-17T23:20:26.740Z,25.63
2023-11-17T23:22:55.936Z,26.27
2023-11-17T23:25:26.115Z,25.27
2023-11-17T23:27:53.248Z,23.37
2023-11-17T23:30:21.054Z,23.53
2023-11-17T23:32:48.065Z,24.27
2023-11-17T23:35:14.954Z,23.60
2023-11-17T23:37:41.801Z,24.87
2023-11-17T23:40:17.687Z,22.90
2023-11-17T23:42:49.959Z,22.27
2023-11-17T23:45:17.930Z,25.83
2023-11-17T23:47:45.093Z,24.77
2023-11-17T23:50:13.098Z,25.53
2023-11-17T23:52:40.283Z,23.60
2023-11-17T23:55:08.041Z,23.47
2023-11-17T23:57:34.783Z,23.97
